Long Beach, Mississippi
Current Conditions -  °F | °C
As of 12:53 AM on Saturday 25 Oct 2014 (Local Time) from KGPT Reporting Station
Clear Clear  
Wind Chill: 54°   Ceiling: Unl
Heat Index: 54°   Visibility: 10mi
Dew Point: 47°   Wind: 5mph
Humidity: 77%   Direction: 320°NW
Pressure: 30.08"   Gusts: NA
Location:  30.35°N, 89.15°W
Report Text: KGPT 250553Z AUTO 32004KT 10SM CLR 12/08 A3008 RMK AO2 SLP184 T01220083 10183 20111 402560100 58001
Loading
Personal Weather Stations






























Interactive Weather Map
Tropical Storm Tracking
New forecast layout! Learn more

10-Day Weather Forecast

Advertisements
Track Severe Weather on mobile